Decoded Metar for LQMO (MOSTAR in BOSNIA-HERCEGOVINA) (IATA:OMO) | Meteo·Mobile Aviation Weather
aviador You're here:

LQMO Decoded Metar

MOSTAR in BOSNIA-HERCEGOVINA
Report Time2019-09-21 09:00:00
UTC Time2019-09-21 09:20:44
Flight Rules vfr VFR
WindVRB at 02 kt
Visibility9999 m
Phenomena:N/A
Clouds:N/A
Expected CloudBase > 8,800 ft AGL from Temp-Dew spread
CeilingNone
Temp21°C (ISA +7)
Dew Point-1°C (23% RH)
AAT18.2°C
QNH1022 hPa
Density Alt919 ft
Elevation354 ft
Report Wrong Elevation
Raw Report
LQMO 210900Z VRB02KT CAVOK 21/M01 Q1022=

Extra information for LQMO:More info

Metar Taf Metar & Taf Last 4 Metars F.Rules Stats Wind Profile Meteogram Temp Stats Airport Information Weather charts Add Link Nearby VenuesMetar ALERT Operation Metar Decoded Social comments